createdAt,value
2022-11-13T00:01:29.080Z,98541.69
2022-11-13T00:03:30.775Z,98535.47
2022-11-13T00:05:32.504Z,98519.38
2022-11-13T00:07:34.192Z,98516.69
2022-11-13T00:09:35.923Z,98507.78
2022-11-13T00:11:37.738Z,98506.91
2022-11-13T00:13:39.465Z,98514.00
2022-11-13T00:15:41.235Z,98523.03
2022-11-13T00:17:42.996Z,98513.16
2022-11-13T00:19:44.697Z,98507.78
2022-11-13T00:21:46.399Z,98510.47
2022-11-13T00:23:48.228Z,98515.69
2022-11-13T00:25:49.960Z,98510.31
2022-11-13T00:27:51.654Z,98522.06
2022-11-13T00:29:53.463Z,98534.47
2022-11-13T00:31:55.134Z,98531.78
2022-11-13T00:36:26.252Z,98513.00
2022-11-13T00:38:28.535Z,98517.38
2022-11-13T00:40:30.448Z,98526.41
2022-11-13T00:42:32.119Z,98530.09
2022-11-13T00:44:33.774Z,98516.69
2022-11-13T00:46:35.498Z,98521.88
2022-11-13T00:48:37.242Z,98523.72
2022-11-13T00:50:38.971Z,98531.78
2022-11-13T00:52:40.637Z,98526.41
2022-11-13T00:54:42.352Z,98538.88
2022-11-13T00:56:44.041Z,98531.78
2022-11-13T00:58:45.778Z,98543.38
2022-11-13T01:00:47.924Z,98541.56
2022-11-13T01:02:49.650Z,98533.50
2022-11-13T01:04:51.385Z,98538.00
2022-11-13T01:06:53.149Z,98533.50
2022-11-13T01:08:56.036Z,98527.25
2022-11-13T01:10:57.761Z,98542.53
2022-11-13T01:12:59.469Z,98544.25
2022-11-13T01:15:01.129Z,98544.25
2022-11-13T01:17:02.849Z,98536.19
2022-11-13T01:19:04.535Z,98539.72
2022-11-13T01:21:20.072Z,98528.13
2022-11-13T01:23:21.747Z,98521.75
2022-11-13T01:25:23.412Z,98533.50
2022-11-13T01:27:25.002Z,98539.72
2022-11-13T01:29:26.705Z,98544.25
2022-11-13T01:31:29.962Z,98531.78
2022-11-13T01:33:31.652Z,98521.03
2022-11-13T01:35:33.328Z,98538.88
2022-11-13T01:37:35.007Z,98512.00
2022-11-13T01:39:36.724Z,98513.00
2022-11-13T01:41:38.409Z,98520.22
2022-11-13T01:43:40.112Z,98509.47
2022-11-13T01:46:06.706Z,98521.03
2022-11-13T01:48:09.808Z,98518.34
2022-11-13T01:50:14.107Z,98527.25
2022-11-13T01:52:29.178Z,98521.88
2022-11-13T01:54:51.422Z,98532.63
2022-11-13T01:56:53.562Z,98516.50
2022-11-13T01:58:58.857Z,98533.50
2022-11-13T02:01:00.593Z,98522.75
2022-11-13T02:03:02.280Z,98524.56
2022-11-13T02:05:04.428Z,98518.34
2022-11-13T02:07:07.884Z,98526.41
2022-11-13T02:09:09.688Z,98522.75
2022-11-13T02:11:11.790Z,98509.31
2022-11-13T02:13:13.617Z,98512.84
2022-11-13T02:15:15.334Z,98502.09
2022-11-13T02:17:20.171Z,98495.91
2022-11-13T02:19:39.534Z,98502.94
2022-11-13T02:22:02.355Z,98495.72
2022-11-13T02:24:27.944Z,98499.25
2022-11-13T02:26:29.655Z,98505.63
2022-11-13T02:28:31.694Z,98498.41
2022-11-13T02:30:34.261Z,98497.56
2022-11-13T02:32:35.978Z,98493.88
2022-11-13T02:34:37.641Z,98502.81
2022-11-13T02:36:39.303Z,98492.19
2022-11-13T02:38:40.968Z,98493.88
2022-11-13T02:40:42.605Z,98488.50
2022-11-13T02:42:44.284Z,98489.38
2022-11-13T02:44:45.961Z,98491.06
2022-11-13T02:46:47.725Z,98487.53
2022-11-13T02:48:49.411Z,98495.59
2022-11-13T02:50:51.130Z,98500.13
2022-11-13T02:52:52.878Z,98486.69
2022-11-13T02:54:54.603Z,98480.44
2022-11-13T02:56:56.276Z,98476.09
2022-11-13T02:58:57.981Z,98483.13
2022-11-13T03:01:01.942Z,98471.56
2022-11-13T03:03:03.759Z,98447.38
2022-11-13T03:05:12.002Z,98477.75
2022-11-13T03:07:14.929Z,98476.09
2022-11-13T03:09:16.708Z,98477.75
2022-11-13T03:11:18.358Z,98469.88
2022-11-13T03:13:20.032Z,98472.41
2022-11-13T03:15:21.705Z,98475.25
2022-11-13T03:17:23.490Z,98486.84
2022-11-13T03:19:25.225Z,98476.94
2022-11-13T03:21:26.894Z,98486.69
2022-11-13T03:23:28.663Z,98487.66
2022-11-13T03:25:30.315Z,98481.47
2022-11-13T03:27:32.002Z,98490.22
2022-11-13T03:29:33.713Z,98474.09
2022-11-13T03:31:35.427Z,98480.44
2022-11-13T03:33:37.101Z,98461.66
2022-11-13T03:35:45.544Z,98480.44
2022-11-13T03:37:48.541Z,98463.50
2022-11-13T03:39:50.307Z,98468.88
2022-11-13T03:41:51.959Z,98478.63
2022-11-13T03:43:53.639Z,98476.94
2022-11-13T03:45:55.314Z,98484.16
2022-11-13T03:47:57.002Z,98459.97
2022-11-13T03:49:58.654Z,98470.72
2022-11-13T03:52:00.369Z,98472.56
2022-11-13T03:54:02.053Z,98467.19
2022-11-13T03:56:03.860Z,98468.03
2022-11-13T03:58:05.526Z,98467.03
2022-11-13T04:00:07.740Z,98461.66
2022-11-13T04:02:09.507Z,98457.28
2022-11-13T04:04:11.371Z,98455.44
2022-11-13T04:06:13.047Z,98467.88
2022-11-13T04:08:14.765Z,98477.75
2022-11-13T04:10:16.798Z,98482.31
2022-11-13T04:12:18.527Z,98492.19
2022-11-13T04:14:20.210Z,98504.63
2022-11-13T04:16:21.933Z,98517.91
2022-11-13T04:18:23.596Z,98511.69
2022-11-13T04:20:25.297Z,98525.13
2022-11-13T04:22:27.058Z,98522.44
2022-11-13T04:24:28.724Z,98507.16
2022-11-13T04:26:30.425Z,98512.53
2022-11-13T04:28:32.333Z,98513.38
2022-11-13T04:30:34.129Z,98510.41
2022-11-13T04:32:35.856Z,98500.66
2022-11-13T04:34:37.446Z,98495.28
2022-11-13T04:36:39.157Z,98498.66
2022-11-13T04:38:40.846Z,98497.81
2022-11-13T04:40:42.626Z,98512.22
2022-11-13T04:42:44.224Z,98502.34
2022-11-13T04:44:45.887Z,98518.47
2022-11-13T04:46:47.499Z,98502.34
2022-11-13T04:48:49.106Z,98501.47
2022-11-13T04:50:50.703Z,98517.75
2022-11-13T04:52:52.412Z,98502.50
2022-11-13T04:54:54.806Z,98506.00
2022-11-13T04:56:57.441Z,98501.66
2022-11-13T04:58:59.041Z,98515.09
2022-11-13T05:01:00.669Z,98514.25
2022-11-13T05:03:02.286Z,98531.19
2022-11-13T05:05:05.436Z,98521.44
2022-11-13T05:07:07.245Z,98524.13
2022-11-13T05:09:08.872Z,98523.13
2022-11-13T05:11:10.546Z,98534.84
2022-11-13T05:13:12.139Z,98539.38
2022-11-13T05:15:13.731Z,98534.03
2022-11-13T05:17:15.559Z,98533.19
2022-11-13T05:19:17.473Z,98538.56
2022-11-13T05:21:19.532Z,98542.22
2022-11-13T05:23:21.153Z,98549.28
2022-11-13T05:25:22.829Z,98542.22
2022-11-13T05:27:24.532Z,98552.81
2022-11-13T05:29:26.135Z,98549.44
2022-11-13T05:31:27.769Z,98537.84
2022-11-13T05:33:29.362Z,98548.59
2022-11-13T05:35:30.994Z,98557.34
2022-11-13T05:37:32.595Z,98548.47
2022-11-13T05:39:34.265Z,98558.34
2022-11-13T05:41:35.974Z,98559.19
2022-11-13T05:43:37.792Z,98558.34
2022-11-13T05:45:39.405Z,98572.78
2022-11-13T05:47:41.128Z,98547.59
2022-11-13T05:49:42.735Z,98593.25
2022-11-13T05:51:44.629Z,98603.97
2022-11-13T05:53:46.317Z,98614.72
2022-11-13T05:55:47.938Z,98612.03
2022-11-13T05:57:49.527Z,98624.63
2022-11-13T05:59:51.126Z,98623.78
2022-11-13T06:01:52.750Z,98620.28
2022-11-13T06:03:58.278Z,98639.91
2022-11-13T06:06:00.101Z,98637.22
2022-11-13T06:08:01.797Z,98638.06
2022-11-13T06:10:03.611Z,98631.84
2022-11-13T06:12:06.335Z,98641.59
2022-11-13T06:14:07.928Z,98638.91
2022-11-13T06:16:11.308Z,98657.88
2022-11-13T06:18:12.906Z,98655.00
2022-11-13T06:20:15.529Z,98658.72
2022-11-13T06:22:17.135Z,98664.91
2022-11-13T06:24:18.999Z,98664.06
2022-11-13T06:26:28.445Z,98668.63
2022-11-13T06:28:30.666Z,98678.50
2022-11-13T06:30:32.592Z,98667.78
2022-11-13T06:32:34.221Z,98673.16
2022-11-13T06:34:36.357Z,98683.00
2022-11-13T06:36:38.039Z,98690.22
2022-11-13T06:38:40.090Z,98704.50
2022-11-13T06:40:41.773Z,98694.75
2022-11-13T06:42:43.420Z,98703.66
2022-11-13T06:44:45.037Z,98712.56
2022-11-13T06:46:46.656Z,98713.56
2022-11-13T06:48:48.315Z,98719.78
2022-11-13T06:50:50.012Z,98714.41
2022-11-13T06:52:51.703Z,98725.16
2022-11-13T06:54:53.413Z,98730.50
2022-11-13T06:56:55.012Z,98729.69
2022-11-13T06:58:56.600Z,98741.25
2022-11-13T07:00:58.247Z,98724.31
2022-11-13T07:02:59.898Z,98749.47
2022-11-13T07:05:01.469Z,98738.56
2022-11-13T07:07:03.224Z,98752.00
2022-11-13T07:09:04.862Z,98749.47
2022-11-13T07:11:06.456Z,98736.06
2022-11-13T07:13:08.137Z,98754.69
2022-11-13T07:15:10.114Z,98755.69
2022-11-13T07:17:11.703Z,98728.84
2022-11-13T07:19:13.349Z,98733.38
2022-11-13T07:21:14.937Z,98753.97
2022-11-13T07:23:16.839Z,98759.34
2022-11-13T07:25:18.434Z,98753.00
2022-11-13T07:27:20.029Z,98750.31
2022-11-13T07:29:21.645Z,98768.13
2022-11-13T07:31:23.333Z,98771.63
2022-11-13T07:33:25.322Z,98757.38
2022-11-13T07:35:26.932Z,98750.03
2022-11-13T07:37:28.512Z,98750.03
2022-11-13T07:39:30.114Z,98747.34
2022-11-13T07:41:31.738Z,98753.41
2022-11-13T07:43:33.900Z,98759.75
2022-11-13T07:45:35.493Z,98752.56
2022-11-13T07:47:37.523Z,98759.75
2022-11-13T07:49:39.637Z,98753.41
2022-11-13T07:51:41.398Z,98749.59
2022-11-13T07:53:43.324Z,98731.63
2022-11-13T07:55:44.955Z,98752.97
2022-11-13T07:57:46.692Z,98754.53
2022-11-13T07:59:48.618Z,98762.44
2022-11-13T08:01:50.383Z,98757.91
2022-11-13T08:03:52.004Z,98758.59
2022-11-13T08:05:53.632Z,98762.84
2022-11-13T08:07:55.391Z,98770.72
2022-11-13T08:09:57.079Z,98770.59
2022-11-13T08:11:58.717Z,98766.94
2022-11-13T08:14:00.438Z,98781.03
2022-11-13T08:16:02.680Z,98783.59
2022-11-13T08:18:04.641Z,98766.34
2022-11-13T08:20:07.304Z,98770.56
2022-11-13T08:22:09.320Z,98781.03
2022-11-13T08:24:11.085Z,98781.44
2022-11-13T08:26:13.053Z,98751.56
2022-11-13T08:28:15.055Z,98794.00
2022-11-13T08:30:16.744Z,98787.16
2022-11-13T08:32:19.669Z,98792.09
2022-11-13T08:34:21.359Z,98792.50
2022-11-13T08:36:23.049Z,98801.81
2022-11-13T08:38:26.883Z,98803.09
2022-11-13T08:40:28.730Z,98798.94
2022-11-13T08:42:31.462Z,98793.97
2022-11-13T08:44:33.693Z,98795.53
2022-11-13T08:46:35.471Z,98794.38
2022-11-13T08:48:37.166Z,98803.28
2022-11-13T08:50:38.902Z,98793.22
2022-11-13T08:52:40.550Z,98798.75
2022-11-13T08:54:42.330Z,98802.28
2022-11-13T08:56:44.050Z,98794.50
2022-11-13T08:58:45.769Z,98802.06
2022-11-13T09:00:47.445Z,98813.09
2022-11-13T09:02:54.118Z,98818.06
2022-11-13T09:04:55.838Z,98815.69
2022-11-13T09:06:57.557Z,98806.19
2022-11-13T09:08:59.251Z,98807.47
2022-11-13T09:11:04.855Z,98812.44
2022-11-13T09:13:06.624Z,98818.97
2022-11-13T09:15:08.848Z,98825.63
2022-11-13T09:17:10.701Z,98813.50
2022-11-13T09:19:12.339Z,98801.34
2022-11-13T09:21:14.024Z,98816.91
2022-11-13T09:23:15.865Z,98827.97
2022-11-13T09:25:17.615Z,98829.94
2022-11-13T09:27:19.528Z,98829.22
2022-11-13T09:29:21.323Z,98833.06
2022-11-13T09:31:23.098Z,98831.38
2022-11-13T09:33:24.705Z,98835.34
2022-11-13T09:35:27.076Z,98830.94
2022-11-13T09:37:28.711Z,98858.81
2022-11-13T09:39:30.441Z,98850.06
2022-11-13T09:41:38.104Z,98848.38
2022-11-13T09:43:55.227Z,98855.72
2022-11-13T09:46:03.213Z,98853.16
2022-11-13T09:48:30.905Z,98860.38
2022-11-13T09:50:32.999Z,98859.69
2022-11-13T09:52:42.624Z,98859.69
2022-11-13T09:54:44.409Z,98880.47
2022-11-13T09:58:52.791Z,98885.13
2022-11-13T10:00:54.577Z,98894.19
2022-11-13T10:03:02.107Z,98894.19
2022-11-13T10:05:11.644Z,98907.63
2022-11-13T10:07:21.742Z,98904.09
2022-11-13T10:09:44.424Z,98920.34
2022-11-13T10:12:11.799Z,98923.03
2022-11-13T10:14:25.277Z,98916.81
2022-11-13T10:16:36.914Z,98915.97
2022-11-13T10:18:38.626Z,98918.66
2022-11-13T10:20:48.225Z,98926.72
2022-11-13T10:22:57.211Z,98933.06
2022-11-13T10:25:03.479Z,98974.19
2022-11-13T10:27:09.097Z,98946.47
2022-11-13T10:29:14.633Z,98944.75
2022-11-13T10:31:16.392Z,98955.22
2022-11-13T10:33:20.772Z,98942.53
2022-11-13T10:35:28.489Z,98955.78
2022-11-13T10:37:52.181Z,98944.94
2022-11-13T10:39:53.919Z,98942.25
2022-11-13T10:41:56.020Z,98965.44
2022-11-13T10:44:20.942Z,98966.31
2022-11-13T10:46:26.069Z,98967.13
2022-11-13T10:48:32.486Z,98961.78
2022-11-13T10:50:34.399Z,98963.44
2022-11-13T10:52:44.699Z,98968.81
2022-11-13T10:54:46.474Z,98967.84
2022-11-13T10:57:00.009Z,98973.22
2022-11-13T10:59:02.445Z,98979.44
2022-11-13T11:01:19.487Z,98995.56
2022-11-13T11:03:25.265Z,98979.31
2022-11-13T11:05:27.179Z,98979.31
2022-11-13T11:07:28.963Z,98988.34
2022-11-13T11:09:31.814Z,98979.31
2022-11-13T11:11:33.471Z,98990.06
2022-11-13T11:13:35.187Z,98992.72
2022-11-13T11:15:42.166Z,98985.53
2022-11-13T11:17:47.275Z,98990.06
2022-11-13T11:20:05.790Z,98980.16
2022-11-13T11:22:13.106Z,98993.56
2022-11-13T11:24:26.313Z,98998.78
2022-11-13T11:26:32.642Z,99001.47
2022-11-13T11:28:37.858Z,98997.94
2022-11-13T11:30:44.451Z,98997.09
2022-11-13T11:32:49.078Z,99002.34
2022-11-13T11:35:15.187Z,99003.31
2022-11-13T11:37:17.814Z,99006.84
2022-11-13T11:39:26.557Z,99016.63
2022-11-13T11:41:33.004Z,99026.53
2022-11-13T11:43:43.799Z,99025.66
2022-11-13T11:45:46.121Z,99037.25
2022-11-13T11:47:47.813Z,99041.75
2022-11-13T11:49:49.499Z,99031.03
2022-11-13T11:52:06.083Z,99053.38
2022-11-13T11:54:32.239Z,99037.25
2022-11-13T11:56:57.661Z,99041.75
2022-11-13T11:59:19.299Z,99056.91
2022-11-13T12:01:29.423Z,99055.19
2022-11-13T12:03:52.453Z,99042.63
2022-11-13T12:06:07.872Z,99051.53
2022-11-13T12:08:27.932Z,99064.97
2022-11-13T12:10:38.524Z,99056.91
2022-11-13T12:13:04.156Z,99069.34
2022-11-13T12:15:42.511Z,99064.97
2022-11-13T12:18:02.117Z,99064.13
2022-11-13T12:20:11.874Z,99071.19
2022-11-13T12:22:23.366Z,99083.78
2022-11-13T12:24:43.626Z,99081.94
2022-11-13T12:27:11.249Z,99081.09
2022-11-13T12:29:20.236Z,99092.53
2022-11-13T12:31:45.973Z,99091.81
2022-11-13T12:34:01.495Z,99088.13
2022-11-13T12:36:03.574Z,99122.22
2022-11-13T12:38:07.959Z,99114.16
2022-11-13T12:40:32.631Z,99128.44
2022-11-13T12:42:39.425Z,99125.75
2022-11-13T12:45:05.475Z,99127.59
2022-11-13T12:47:07.182Z,99135.66
2022-11-13T12:49:24.224Z,99141.03
2022-11-13T12:51:25.940Z,99145.53
2022-11-13T12:53:29.490Z,99151.75
2022-11-13T12:55:35.381Z,99157.97
2022-11-13T12:57:47.091Z,99141.84
2022-11-13T12:59:52.754Z,99156.16
2022-11-13T13:02:08.280Z,99157.97
2022-11-13T13:04:34.756Z,99167.50
2022-11-13T13:07:09.779Z,99168.78
2022-11-13T13:09:17.946Z,99165.13
2022-11-13T13:11:40.733Z,99174.75
2022-11-13T13:13:47.398Z,99164.59
2022-11-13T13:15:59.709Z,99181.41
2022-11-13T13:18:12.396Z,99182.13
2022-11-13T13:20:17.333Z,99160.41
2022-11-13T13:22:33.157Z,99188.94
2022-11-13T13:24:36.784Z,99183.28
2022-11-13T13:26:46.605Z,99200.97
2022-11-13T13:28:57.720Z,99193.78
2022-11-13T13:31:13.385Z,99193.50
2022-11-13T13:33:26.106Z,99215.00
2022-11-13T13:35:31.776Z,99205.94
2022-11-13T13:37:43.727Z,99213.03
2022-11-13T13:39:57.304Z,99209.34
2022-11-13T13:42:14.496Z,99216.44
2022-11-13T13:44:25.044Z,99218.13
2022-11-13T13:46:27.279Z,99230.59
2022-11-13T13:48:30.185Z,99226.09
2022-11-13T13:50:33.210Z,99223.25
2022-11-13T13:52:35.453Z,99234.00
2022-11-13T13:54:37.128Z,99236.69
2022-11-13T13:56:41.938Z,99233.03
2022-11-13T13:58:43.590Z,99231.19
2022-11-13T14:01:17.066Z,99231.19
2022-11-13T14:03:31.424Z,99246.34
2022-11-13T14:05:34.733Z,99241.81
2022-11-13T14:07:36.469Z,99251.53
2022-11-13T14:09:38.262Z,99251.53
2022-11-13T14:11:39.943Z,99247.91
2022-11-13T14:13:41.628Z,99250.56
2022-11-13T14:15:46.479Z,99248.75
2022-11-13T14:18:04.432Z,99247.03
2022-11-13T14:20:11.226Z,99253.25
2022-11-13T14:22:15.861Z,99261.16
2022-11-13T14:24:29.238Z,99258.47
2022-11-13T14:26:30.952Z,99269.22
2022-11-13T14:28:56.661Z,99268.25
2022-11-13T14:31:01.309Z,99278.13
2022-11-13T14:33:03.043Z,99285.22
2022-11-13T14:35:05.429Z,99285.22
2022-11-13T14:37:41.602Z,99290.59
2022-11-13T14:39:51.084Z,99293.28
2022-11-13T14:41:55.477Z,99294.97
2022-11-13T14:43:56.952Z,99286.91
2022-11-13T14:46:01.426Z,99297.66
2022-11-13T14:48:16.250Z,99298.53
2022-11-13T14:50:25.354Z,99305.72
2022-11-13T14:52:30.098Z,99306.59
2022-11-13T14:54:53.237Z,99313.66
2022-11-13T14:56:54.638Z,99310.97
2022-11-13T14:58:56.315Z,99314.66
2022-11-13T15:00:59.193Z,99313.66
2022-11-13T15:03:01.860Z,99326.25
2022-11-13T15:05:03.876Z,99314.50
2022-11-13T15:07:27.896Z,99327.94
2022-11-13T15:09:30.226Z,99338.66
2022-11-13T15:11:31.976Z,99319.88
2022-11-13T15:13:33.651Z,99340.38
2022-11-13T15:15:35.384Z,99341.34
2022-11-13T15:17:37.125Z,99345.75
2022-11-13T15:19:38.817Z,99355.63
2022-11-13T15:21:40.954Z,99344.03
2022-11-13T15:23:42.704Z,99361.88
2022-11-13T15:25:44.371Z,99356.50
2022-11-13T15:27:46.097Z,99365.53
2022-11-13T15:29:47.756Z,99359.31
2022-11-13T15:31:49.493Z,99351.97
2022-11-13T15:33:51.131Z,99366.38
2022-11-13T15:35:52.751Z,99372.63
2022-11-13T15:37:54.471Z,99372.63
2022-11-13T15:39:56.187Z,99388.75
2022-11-13T15:41:57.940Z,99373.47
2022-11-13T15:44:00.125Z,99378.84
2022-11-13T15:46:01.798Z,99380.69
2022-11-13T15:48:03.534Z,99389.59
2022-11-13T15:50:14.951Z,99390.44
2022-11-13T15:52:17.146Z,99382.38
2022-11-13T15:54:25.543Z,99387.75
2022-11-13T15:56:27.438Z,99395.81
2022-11-13T15:58:33.522Z,99402.03
2022-11-13T16:00:36.265Z,99384.09
2022-11-13T16:02:37.907Z,99397.53
2022-11-13T16:04:55.426Z,99401.19
2022-11-13T16:06:58.132Z,99413.66
2022-11-13T16:09:00.737Z,99416.34
2022-11-13T16:11:02.468Z,99415.47
2022-11-13T16:13:04.105Z,99418.16
2022-11-13T16:15:06.289Z,99419.88
2022-11-13T16:17:15.256Z,99420.72
2022-11-13T16:19:23.409Z,99426.09
2022-11-13T16:21:25.191Z,99430.63
2022-11-13T16:23:27.181Z,99420.72
2022-11-13T16:25:29.127Z,99422.41
2022-11-13T16:27:31.502Z,99426.94
2022-11-13T16:29:33.219Z,99433.16
2022-11-13T16:31:34.933Z,99423.28
2022-11-13T16:33:36.789Z,99441.94
2022-11-13T16:35:39.486Z,99431.06
2022-11-13T16:37:41.161Z,99439.00
2022-11-13T16:39:43.959Z,99435.22
2022-11-13T16:41:45.787Z,99437.75
2022-11-13T16:43:47.461Z,99433.25
2022-11-13T16:45:49.184Z,99434.09
2022-11-13T16:47:50.899Z,99451.06
2022-11-13T16:49:52.596Z,99446.53
2022-11-13T16:51:54.309Z,99457.28
2022-11-13T16:53:57.078Z,99434.81
2022-11-13T16:55:58.775Z,99442.88
2022-11-13T16:58:00.512Z,99446.41
2022-11-13T17:00:02.546Z,99446.25
2022-11-13T17:02:08.914Z,99444.56
2022-11-13T17:04:12.850Z,99452.50
2022-11-13T17:06:23.531Z,99445.28
2022-11-13T17:08:25.268Z,99445.28
2022-11-13T17:10:31.845Z,99450.56
2022-11-13T17:12:34.156Z,99459.47
2022-11-13T17:14:35.920Z,99452.25
2022-11-13T17:16:37.600Z,99441.50
2022-11-13T17:18:39.387Z,99453.09
2022-11-13T17:20:41.042Z,99460.19
2022-11-13T17:22:42.719Z,99473.75
2022-11-13T17:24:44.470Z,99486.34
2022-11-13T17:26:46.196Z,99494.63
2022-11-13T17:28:47.839Z,99485.88
2022-11-13T17:30:49.553Z,99480.72
2022-11-13T17:32:51.324Z,99502.50
2022-11-13T17:34:53.018Z,99492.97
2022-11-13T17:36:56.971Z,99484.47
2022-11-13T17:38:58.669Z,99510.59
2022-11-13T17:41:04.827Z,99509.28
2022-11-13T17:43:09.173Z,99490.88
2022-11-13T17:45:10.726Z,99508.16
2022-11-13T17:47:12.423Z,99502.06
2022-11-13T17:49:14.156Z,99506.84
2022-11-13T17:51:15.851Z,99507.97
2022-11-13T17:53:17.848Z,99494.78
2022-11-13T17:55:19.619Z,99502.25
2022-11-13T17:57:25.695Z,99505.16
2022-11-13T17:59:28.538Z,99507.25
2022-11-13T18:01:31.465Z,99518.25
2022-11-13T18:03:33.195Z,99521.16
2022-11-13T18:05:40.349Z,99521.44
2022-11-13T18:07:42.525Z,99529.00
2022-11-13T18:09:44.304Z,99523.91
2022-11-13T18:11:45.978Z,99534.75
2022-11-13T18:13:48.065Z,99526.53
2022-11-13T18:15:49.916Z,99527.16
2022-11-13T18:17:51.643Z,99528.75
2022-11-13T18:19:57.247Z,99528.47
2022-11-13T18:22:03.053Z,99522.72
2022-11-13T18:24:16.104Z,99515.28
2022-11-13T18:26:18.680Z,99513.19
2022-11-13T18:28:20.297Z,99525.66
2022-11-13T18:30:21.958Z,99510.13
2022-11-13T18:32:24.888Z,99513.53
2022-11-13T18:34:26.653Z,99524.06
2022-11-13T18:36:28.848Z,99503.19
2022-11-13T18:38:30.583Z,99507.56
2022-11-13T18:40:32.281Z,99499.50
2022-11-13T18:42:33.976Z,99517.59
2022-11-13T18:44:35.748Z,99526.00
2022-11-13T18:46:37.501Z,99520.63
2022-11-13T18:48:40.110Z,99521.59
2022-11-13T18:50:41.792Z,99504.63
2022-11-13T18:52:43.567Z,99520.63
2022-11-13T18:54:45.352Z,99525.06
2022-11-13T18:56:48.323Z,99520.63
2022-11-13T18:58:51.003Z,99515.88
2022-11-13T19:00:52.728Z,99528.94
2022-11-13T19:02:54.400Z,99526.97
2022-11-13T19:04:56.075Z,99532.09
2022-11-13T19:06:57.908Z,99528.19
2022-11-13T19:09:01.048Z,99522.53
2022-11-13T19:11:04.451Z,99545.59
2022-11-13T19:13:06.914Z,99550.59
2022-11-13T19:15:09.064Z,99530.66
2022-11-13T19:17:11.289Z,99543.00
2022-11-13T19:19:18.250Z,99536.28
2022-11-13T19:21:20.662Z,99531.34
2022-11-13T19:23:22.445Z,99534.66
2022-11-13T19:25:24.202Z,99536.06
2022-11-13T19:27:26.061Z,99546.59
2022-11-13T19:29:27.879Z,99527.78
2022-11-13T19:31:30.946Z,99543.75
2022-11-13T19:33:32.700Z,99531.66
2022-11-13T19:35:34.500Z,99542.13
2022-11-13T19:37:36.232Z,99543.13
2022-11-13T19:39:38.593Z,99531.38
2022-11-13T19:41:40.543Z,99527.69
2022-11-13T19:43:42.437Z,99540.16
2022-11-13T19:45:44.265Z,99525.59
2022-11-13T19:47:45.969Z,99530.88
2022-11-13T19:49:47.679Z,99533.78
2022-11-13T19:51:49.343Z,99533.94
2022-11-13T19:53:58.739Z,99523.44
2022-11-13T19:56:00.427Z,99537.88
2022-11-13T19:58:02.237Z,99537.16
2022-11-13T20:00:04.595Z,99528.34
2022-11-13T20:02:06.508Z,99533.88
2022-11-13T20:04:09.633Z,99539.50
2022-11-13T20:06:15.306Z,99530.72
2022-11-13T20:08:18.943Z,99538.19
2022-11-13T20:10:20.712Z,99536.63
2022-11-13T20:12:22.386Z,99540.28
2022-11-13T20:14:24.083Z,99541.38
2022-11-13T20:16:25.922Z,99541.53
2022-11-13T20:18:28.056Z,99549.72
2022-11-13T20:20:29.998Z,99555.22
2022-11-13T20:22:31.708Z,99568.66
2022-11-13T20:24:33.415Z,99580.13
2022-11-13T20:26:35.122Z,99594.56
2022-11-13T20:28:36.855Z,99584.66
2022-11-13T20:30:38.547Z,99584.66
2022-11-13T20:32:40.481Z,99582.94
2022-11-13T20:34:42.232Z,99587.44
2022-11-13T20:36:44.250Z,99575.84
2022-11-13T20:38:50.378Z,99582.06
2022-11-13T20:40:52.126Z,99585.75
2022-11-13T20:42:53.800Z,99591.13
2022-11-13T20:44:59.987Z,99586.72
2022-11-13T20:47:03.016Z,99588.56
2022-11-13T20:49:04.866Z,99586.88
2022-11-13T20:51:12.275Z,99596.03
2022-11-13T20:53:13.984Z,99602.38
2022-11-13T20:55:15.696Z,99607.91
2022-11-13T20:57:17.440Z,99609.72
2022-11-13T20:59:19.111Z,99609.97
2022-11-13T21:01:22.616Z,99616.34
2022-11-13T21:03:24.368Z,99617.03
2022-11-13T21:05:27.202Z,99616.34
2022-11-13T21:07:28.969Z,99611.94
2022-11-13T21:09:30.737Z,99626.34
2022-11-13T21:11:32.495Z,99615.59
2022-11-13T21:13:34.460Z,99616.72
2022-11-13T21:15:37.925Z,99624.88
2022-11-13T21:17:39.750Z,99626.84
2022-11-13T21:19:41.449Z,99625.16
2022-11-13T21:21:43.138Z,99635.03
2022-11-13T21:23:45.134Z,99638.59
2022-11-13T21:25:46.788Z,99634.16
2022-11-13T21:27:48.519Z,99635.03
2022-11-13T21:29:50.191Z,99653.97
2022-11-13T21:31:51.882Z,99639.81
2022-11-13T21:33:53.621Z,99636.13
2022-11-13T21:35:55.307Z,99629.78
2022-11-13T21:37:57.042Z,99625.38
2022-11-13T21:39:58.810Z,99626.38
2022-11-13T21:42:00.474Z,99628.22
2022-11-13T21:44:05.965Z,99627.34
2022-11-13T21:46:07.671Z,99634.53
2022-11-13T21:48:09.349Z,99638.06
2022-11-13T21:50:11.091Z,99637.22
2022-11-13T21:52:12.812Z,99633.69
2022-11-13T21:54:14.584Z,99629.06
2022-11-13T21:56:16.316Z,99639.81
2022-11-13T21:58:18.029Z,99636.13
2022-11-13T22:00:19.990Z,99638.81
2022-11-13T22:02:21.764Z,99641.50
2022-11-13T22:04:23.529Z,99638.81
2022-11-13T22:06:26.747Z,99645.06
2022-11-13T22:08:28.633Z,99653.13
2022-11-13T22:10:30.468Z,99657.63
2022-11-13T22:12:32.137Z,99645.19
2022-11-13T22:14:33.832Z,99655.06
2022-11-13T22:16:36.883Z,99654.19
2022-11-13T22:18:38.586Z,99657.88
2022-11-13T22:20:40.449Z,99658.88
2022-11-13T22:22:42.149Z,99667.78
2022-11-13T22:24:43.872Z,99659.81
2022-11-13T22:26:45.949Z,99668.88
2022-11-13T22:28:47.884Z,99667.16
2022-11-13T22:30:49.576Z,99674.25
2022-11-13T22:32:51.282Z,99672.53
2022-11-13T22:34:52.939Z,99678.78
2022-11-13T22:36:54.702Z,99684.16
2022-11-13T22:38:56.912Z,99683.25
2022-11-13T22:41:06.623Z,99685.00
2022-11-13T22:43:08.348Z,99693.06
2022-11-13T22:45:22.873Z,99697.44
2022-11-13T22:47:25.656Z,99695.75
2022-11-13T22:49:27.455Z,99693.06
2022-11-13T22:51:35.396Z,99687.69
2022-11-13T22:53:37.381Z,99692.06
2022-11-13T22:55:39.094Z,99692.06
2022-11-13T22:57:40.820Z,99689.38
2022-11-13T22:59:42.552Z,99689.38
2022-11-13T23:01:44.278Z,99690.22
2022-11-13T23:03:47.141Z,99686.69
2022-11-13T23:05:48.901Z,99689.38
2022-11-13T23:07:50.674Z,99691.22
2022-11-13T23:09:52.459Z,99689.38
2022-11-13T23:11:54.289Z,99697.44
2022-11-13T23:13:57.143Z,99694.75
2022-11-13T23:15:59.675Z,99697.44
2022-11-13T23:18:04.685Z,99695.75
2022-11-13T23:20:10.602Z,99701.09
2022-11-13T23:22:12.268Z,99706.47
2022-11-13T23:24:14.143Z,99708.31
2022-11-13T23:26:16.048Z,99708.31
2022-11-13T23:28:18.971Z,99706.47
2022-11-13T23:30:20.657Z,99709.03
2022-11-13T23:32:22.446Z,99714.53
2022-11-13T23:34:45.305Z,99710.88
2022-11-13T23:36:45.877Z,99710.13
2022-11-13T23:38:47.570Z,99715.28
2022-11-13T23:40:55.866Z,99716.13
2022-11-13T23:42:57.546Z,99710.88
2022-11-13T23:44:59.275Z,99712.59
2022-11-13T23:47:01.079Z,99702.81
2022-11-13T23:49:02.796Z,99705.63
2022-11-13T23:51:04.540Z,99712.81
2022-11-13T23:53:06.223Z,99713.81
2022-11-13T23:55:08.260Z,99719.19
2022-11-13T23:57:10.131Z,99703.06
2022-11-13T23:59:11.807Z,99713.81
